sensor_id;sensor_type;location;lat;lon;timestamp;pressure;altitude;pressure_sealevel;temperature;humidity
67987;BME280;54767;53.800;15.956;2023-04-25T00:01:42;99047.83;;;9.10;71.12
67987;BME280;54767;53.800;15.956;2023-04-25T00:04:08;99046.08;;;9.11;71.39
67987;BME280;54767;53.800;15.956;2023-04-25T00:06:36;99047.44;;;9.13;71.37
67987;BME280;54767;53.800;15.956;2023-04-25T00:09:04;99044.48;;;9.15;71.54
67987;BME280;54767;53.800;15.956;2023-04-25T00:11:33;99049.34;;;9.15;71.66
67987;BME280;54767;53.800;15.956;2023-04-25T00:14:00;99042.86;;;9.16;71.71
67987;BME280;54767;53.800;15.956;2023-04-25T00:16:29;99043.39;;;9.16;71.72
67987;BME280;54767;53.800;15.956;2023-04-25T00:19:01;99040.80;;;9.14;71.55
67987;BME280;54767;53.800;15.956;2023-04-25T00:21:28;99043.59;;;9.14;71.59
67987;BME280;54767;53.800;15.956;2023-04-25T00:23:55;99045.16;;;9.15;71.86
67987;BME280;54767;53.800;15.956;2023-04-25T00:26:22;99043.75;;;9.16;72.05
67987;BME280;54767;53.800;15.956;2023-04-25T00:28:49;99046.36;;;9.16;71.91
67987;BME280;54767;53.800;15.956;2023-04-25T00:31:16;99048.64;;;9.16;71.85
67987;BME280;54767;53.800;15.956;2023-04-25T00:33:43;99045.69;;;9.14;72.14
67987;BME280;54767;53.800;15.956;2023-04-25T00:36:10;99044.31;;;9.12;72.05
67987;BME280;54767;53.800;15.956;2023-04-25T00:38:37;99046.38;;;9.14;71.97
67987;BME280;54767;53.800;15.956;2023-04-25T00:41:07;99048.27;;;9.16;72.14
67987;BME280;54767;53.800;15.956;2023-04-25T00:43:34;99051.07;;;9.17;72.12
67987;BME280;54767;53.800;15.956;2023-04-25T00:46:02;99051.23;;;9.17;71.83
67987;BME280;54767;53.800;15.956;2023-04-25T00:48:29;99052.65;;;9.15;71.94
67987;BME280;54767;53.800;15.956;2023-04-25T00:50:58;99049.89;;;9.12;72.16
67987;BME280;54767;53.800;15.956;2023-04-25T00:53:26;99052.00;;;9.10;71.88
67987;BME280;54767;53.800;15.956;2023-04-25T00:55:54;99049.95;;;9.09;71.87
67987;BME280;54767;53.800;15.956;2023-04-25T00:58:22;99042.79;;;9.08;71.87
67987;BME280;54767;53.800;15.956;2023-04-25T01:00:50;99042.27;;;9.07;71.91
67987;BME280;54767;53.800;15.956;2023-04-25T01:03:18;99047.36;;;9.03;71.89
67987;BME280;54767;53.800;15.956;2023-04-25T01:05:48;99053.33;;;9.01;71.89
67987;BME280;54767;53.800;15.956;2023-04-25T01:08:16;99050.55;;;8.99;72.03
67987;BME280;54767;53.800;15.956;2023-04-25T01:10:43;99051.08;;;8.99;72.05
67987;BME280;54767;53.800;15.956;2023-04-25T01:13:10;99051.08;;;9.01;72.09
67987;BME280;54767;53.800;15.956;2023-04-25T01:15:37;99050.37;;;9.01;71.91
67987;BME280;54767;53.800;15.956;2023-04-25T01:18:05;99051.77;;;8.99;72.01
67987;BME280;54767;53.800;15.956;2023-04-25T01:20:32;99051.08;;;8.99;71.97
67987;BME280;54767;53.800;15.956;2023-04-25T01:23:00;99050.42;;;8.96;71.91
67987;BME280;54767;53.800;15.956;2023-04-25T01:25:30;99052.20;;;8.92;71.93
67987;BME280;54767;53.800;15.956;2023-04-25T01:27:58;99052.58;;;8.90;72.02
67987;BME280;54767;53.800;15.956;2023-04-25T01:30:28;99051.73;;;8.88;72.07
67987;BME280;54767;53.800;15.956;2023-04-25T01:32:56;99052.77;;;8.88;72.31
67987;BME280;54767;53.800;15.956;2023-04-25T01:35:23;99052.23;;;8.90;72.09
67987;BME280;54767;53.800;15.956;2023-04-25T01:37:50;99051.18;;;8.90;72.12
67987;BME280;54767;53.800;15.956;2023-04-25T01:40:18;99052.41;;;8.89;72.07
67987;BME280;54767;53.800;15.956;2023-04-25T01:42:45;99051.54;;;8.89;72.28
67987;BME280;54767;53.800;15.956;2023-04-25T01:45:12;99051.38;;;8.88;71.90
67987;BME280;54767;53.800;15.956;2023-04-25T01:47:39;99052.61;;;8.88;72.22
67987;BME280;54767;53.800;15.956;2023-04-25T01:50:07;99050.16;;;8.87;72.06
67987;BME280;54767;53.800;15.956;2023-04-25T01:52:34;99054.19;;;8.86;71.96
67987;BME280;54767;53.800;15.956;2023-04-25T01:55:02;99055.08;;;8.84;72.00
67987;BME280;54767;53.800;15.956;2023-04-25T01:57:29;99051.46;;;8.80;71.89
67987;BME280;54767;53.800;15.956;2023-04-25T01:59:59;99055.13;;;8.78;71.94
67987;BME280;54767;53.800;15.956;2023-04-25T02:02:27;99058.84;;;8.75;71.88
67987;BME280;54767;53.800;15.956;2023-04-25T02:04:54;99062.17;;;8.73;71.95
67987;BME280;54767;53.800;15.956;2023-04-25T02:07:21;99067.59;;;8.73;71.86
67987;BME280;54767;53.800;15.956;2023-04-25T02:09:48;99068.81;;;8.71;71.73
67987;BME280;54767;53.800;15.956;2023-04-25T02:12:15;99066.56;;;8.71;71.64
67987;BME280;54767;53.800;15.956;2023-04-25T02:14:41;99069.34;;;8.70;71.46
67987;BME280;54767;53.800;15.956;2023-04-25T02:17:08;99064.98;;;8.70;71.68
67987;BME280;54767;53.800;15.956;2023-04-25T02:19:35;99064.30;;;8.68;71.62
67987;BME280;54767;53.800;15.956;2023-04-25T02:22:02;99066.08;;;8.65;71.71
67987;BME280;54767;53.800;15.956;2023-04-25T02:24:29;99066.25;;;8.64;71.53
67987;BME280;54767;53.800;15.956;2023-04-25T02:27:00;99061.73;;;8.64;71.87
67987;BME280;54767;53.800;15.956;2023-04-25T02:29:27;99067.12;;;8.64;71.64
67987;BME280;54767;53.800;15.956;2023-04-25T02:31:54;99065.39;;;8.66;71.53
67987;BME280;54767;53.800;15.956;2023-04-25T02:34:22;99065.38;;;8.66;71.55
67987;BME280;54767;53.800;15.956;2023-04-25T02:36:49;99065.36;;;8.66;71.61
67987;BME280;54767;53.800;15.956;2023-04-25T02:39:18;99062.23;;;8.65;71.42
67987;BME280;54767;53.800;15.956;2023-04-25T02:41:45;99056.52;;;8.62;71.66
67987;BME280;54767;53.800;15.956;2023-04-25T02:44:12;99056.20;;;8.58;71.61
67987;BME280;54767;53.800;15.956;2023-04-25T02:46:38;99057.27;;;8.54;71.48
67987;BME280;54767;53.800;15.956;2023-04-25T02:49:06;99057.80;;;8.55;71.56
67987;BME280;54767;53.800;15.956;2023-04-25T02:51:33;99053.44;;;8.55;71.54
67987;BME280;54767;53.800;15.956;2023-04-25T02:54:00;99055.38;;;8.52;71.42
67987;BME280;54767;53.800;15.956;2023-04-25T02:56:26;99053.66;;;8.50;71.34
67987;BME280;54767;53.800;15.956;2023-04-25T02:58:53;99054.01;;;8.49;71.42
67987;BME280;54767;53.800;15.956;2023-04-25T03:01:23;99049.50;;;8.47;71.55
67987;BME280;54767;53.800;15.956;2023-04-25T03:03:50;99049.02;;;8.40;71.42
67987;BME280;54767;53.800;15.956;2023-04-25T03:06:17;99046.40;;;8.36;71.55
67987;BME280;54767;53.800;15.956;2023-04-25T03:08:44;99048.02;;;8.32;71.50
67987;BME280;54767;53.800;15.956;2023-04-25T03:11:10;99048.55;;;8.29;71.40
67987;BME280;54767;53.800;15.956;2023-04-25T03:13:37;99047.34;;;8.27;71.50
67987;BME280;54767;53.800;15.956;2023-04-25T03:16:04;99049.80;;;8.25;71.55
67987;BME280;54767;53.800;15.956;2023-04-25T03:18:31;99050.19;;;8.21;71.54
67987;BME280;54767;53.800;15.956;2023-04-25T03:20:58;99050.73;;;8.18;71.53
67987;BME280;54767;53.800;15.956;2023-04-25T03:23:25;99055.11;;;8.14;71.64
67987;BME280;54767;53.800;15.956;2023-04-25T03:25:52;99054.44;;;8.11;71.65
67987;BME280;54767;53.800;15.956;2023-04-25T03:28:19;99049.57;;;8.09;71.64
67987;BME280;54767;53.800;15.956;2023-04-25T03:30:46;99046.81;;;8.07;71.65
67987;BME280;54767;53.800;15.956;2023-04-25T03:33:13;99047.88;;;8.04;71.59
67987;BME280;54767;53.800;15.956;2023-04-25T03:35:40;99050.52;;;8.00;71.66
67987;BME280;54767;53.800;15.956;2023-04-25T03:38:06;99052.64;;;7.96;71.74
67987;BME280;54767;53.800;15.956;2023-04-25T03:40:33;99047.43;;;7.94;71.99
67987;BME280;54767;53.800;15.956;2023-04-25T03:43:00;99049.52;;;7.92;72.05
67987;BME280;54767;53.800;15.956;2023-04-25T03:45:27;99051.96;;;7.91;72.11
67987;BME280;54767;53.800;15.956;2023-04-25T03:47:54;99049.70;;;7.91;71.96
67987;BME280;54767;53.800;15.956;2023-04-25T03:50:20;99051.61;;;7.91;72.06
67987;BME280;54767;53.800;15.956;2023-04-25T03:52:47;99054.92;;;7.91;72.11
67987;BME280;54767;53.800;15.956;2023-04-25T03:55:14;99053.20;;;7.89;72.11
67987;BME280;54767;53.800;15.956;2023-04-25T03:57:41;99057.93;;;7.86;72.27
67987;BME280;54767;53.800;15.956;2023-04-25T04:00:08;99058.28;;;7.84;72.31
67987;BME280;54767;53.800;15.956;2023-04-25T04:02:36;99061.08;;;7.84;72.44
67987;BME280;54767;53.800;15.956;2023-04-25T04:05:04;99056.36;;;7.84;72.55
67987;BME280;54767;53.800;15.956;2023-04-25T04:07:32;99061.23;;;7.84;72.65
67987;BME280;54767;53.800;15.956;2023-04-25T04:09:59;99061.07;;;7.84;72.77
67987;BME280;54767;53.800;15.956;2023-04-25T04:12:26;99065.59;;;7.84;72.88
67987;BME280;54767;53.800;15.956;2023-04-25T04:14:53;99069.26;;;7.84;72.97
67987;BME280;54767;53.800;15.956;2023-04-25T04:17:20;99065.59;;;7.84;73.12
67987;BME280;54767;53.800;15.956;2023-04-25T04:19:47;99068.54;;;7.86;73.21
67987;BME280;54767;53.800;15.956;2023-04-25T04:22:13;99068.02;;;7.88;73.21
67987;BME280;54767;53.800;15.956;2023-04-25T04:24:40;99070.09;;;7.90;73.29
67987;BME280;54767;53.800;15.956;2023-04-25T04:27:10;99074.95;;;7.92;73.34
67987;BME280;54767;53.800;15.956;2023-04-25T04:29:39;99079.83;;;7.93;73.49
67987;BME280;54767;53.800;15.956;2023-04-25T04:32:06;99079.83;;;7.93;73.47
67987;BME280;54767;53.800;15.956;2023-04-25T04:34:33;99077.55;;;7.94;73.69
67987;BME280;54767;53.800;15.956;2023-04-25T04:37:02;99086.61;;;7.97;73.69
67987;BME280;54767;53.800;15.956;2023-04-25T04:39:29;99086.57;;;8.01;73.72
67987;BME280;54767;53.800;15.956;2023-04-25T04:41:56;99088.47;;;8.03;73.62
67987;BME280;54767;53.800;15.956;2023-04-25T04:44:24;99088.64;;;8.05;73.76
67987;BME280;54767;53.800;15.956;2023-04-25T04:46:51;99091.42;;;8.07;73.80
67987;BME280;54767;53.800;15.956;2023-04-25T04:49:18;99095.77;;;8.06;73.88
67987;BME280;54767;53.800;15.956;2023-04-25T04:51:45;99094.38;;;8.08;73.90
67987;BME280;54767;53.800;15.956;2023-04-25T04:54:12;99095.39;;;8.11;73.94
67987;BME280;54767;53.800;15.956;2023-04-25T04:56:39;99096.60;;;8.14;73.95
67987;BME280;54767;53.800;15.956;2023-04-25T04:59:05;99097.13;;;8.14;73.72
67987;BME280;54767;53.800;15.956;2023-04-25T05:01:33;99095.73;;;8.13;73.98
67987;BME280;54767;53.800;15.956;2023-04-25T05:04:03;99101.48;;;8.12;73.77
67987;BME280;54767;53.800;15.956;2023-04-25T05:06:30;99096.44;;;8.10;73.97
67987;BME280;54767;53.800;15.956;2023-04-25T05:08:57;99096.79;;;8.10;74.08
67987;BME280;54767;53.800;15.956;2023-04-25T05:11:24;99094.34;;;8.13;74.15
67987;BME280;54767;53.800;15.956;2023-04-25T05:13:52;99098.49;;;8.17;74.16
67987;BME280;54767;53.800;15.956;2023-04-25T05:16:20;99097.61;;;8.20;74.20
67987;BME280;54767;53.800;15.956;2023-04-25T05:18:47;99099.52;;;8.22;74.11
67987;BME280;54767;53.800;15.956;2023-04-25T05:21:14;99099.70;;;8.22;74.03
67987;BME280;54767;53.800;15.956;2023-04-25T05:23:41;99101.61;;;8.22;74.04
67987;BME280;54767;53.800;15.956;2023-04-25T05:26:07;99102.11;;;8.25;74.05
67987;BME280;54767;53.800;15.956;2023-04-25T05:28:40;99103.13;;;8.27;74.08
67987;BME280;54767;53.800;15.956;2023-04-25T05:31:11;99110.95;;;8.30;74.12
67987;BME280;54767;53.800;15.956;2023-04-25T05:33:38;99107.98;;;8.32;74.00
67987;BME280;54767;53.800;15.956;2023-04-25T05:36:05;99107.98;;;8.30;73.93
67987;BME280;54767;53.800;15.956;2023-04-25T05:38:32;99115.12;;;8.32;74.07
67987;BME280;54767;53.800;15.956;2023-04-25T05:41:01;99115.46;;;8.33;74.16
67987;BME280;54767;53.800;15.956;2023-04-25T05:43:28;99116.50;;;8.35;74.10
67987;BME280;54767;53.800;15.956;2023-04-25T05:45:54;99121.36;;;8.37;74.21
67987;BME280;54767;53.800;15.956;2023-04-25T05:48:21;99122.06;;;8.40;74.02
67987;BME280;54767;53.800;15.956;2023-04-25T05:50:48;99123.27;;;8.42;74.09
67987;BME280;54767;53.800;15.956;2023-04-25T05:53:15;99123.62;;;8.43;74.06
67987;BME280;54767;53.800;15.956;2023-04-25T05:55:41;99122.21;;;8.44;74.15
67987;BME280;54767;53.800;15.956;2023-04-25T05:58:08;99124.66;;;8.45;74.08
67987;BME280;54767;53.800;15.956;2023-04-25T06:00:35;99122.22;;;8.45;74.03
67987;BME280;54767;53.800;15.956;2023-04-25T06:03:02;99126.04;;;8.46;74.12
67987;BME280;54767;53.800;15.956;2023-04-25T06:05:29;99124.11;;;8.48;74.04
67987;BME280;54767;53.800;15.956;2023-04-25T06:07:56;99123.60;;;8.48;74.18
67987;BME280;54767;53.800;15.956;2023-04-25T06:10:23;99122.00;;;8.49;74.23
67987;BME280;54767;53.800;15.956;2023-04-25T06:12:50;99123.94;;;8.49;74.00
67987;BME280;54767;53.800;15.956;2023-04-25T06:15:17;99123.39;;;8.50;74.07
67987;BME280;54767;53.800;15.956;2023-04-25T06:17:55;99123.23;;;8.51;74.01
67987;BME280;54767;53.800;15.956;2023-04-25T06:20:22;99124.09;;;8.51;74.21
67987;BME280;54767;53.800;15.956;2023-04-25T06:22:51;99124.42;;;8.53;74.14
67987;BME280;54767;53.800;15.956;2023-04-25T06:25:18;99127.21;;;8.53;74.33
67987;BME280;54767;53.800;15.956;2023-04-25T06:27:45;99125.13;;;8.53;74.28
67987;BME280;54767;53.800;15.956;2023-04-25T06:30:12;99125.83;;;8.53;74.34
67987;BME280;54767;53.800;15.956;2023-04-25T06:32:39;99125.82;;;8.52;74.33
67987;BME280;54767;53.800;15.956;2023-04-25T06:35:06;99130.70;;;8.53;74.55
67987;BME280;54767;53.800;15.956;2023-04-25T06:37:33;99132.63;;;8.53;74.45
67987;BME280;54767;53.800;15.956;2023-04-25T06:39:59;99132.80;;;8.53;74.53
67987;BME280;54767;53.800;15.956;2023-04-25T06:42:26;99131.92;;;8.51;74.59
67987;BME280;54767;53.800;15.956;2023-04-25T06:44:54;99132.11;;;8.51;74.81
67987;BME280;54767;53.800;15.956;2023-04-25T06:47:21;99129.98;;;8.54;74.86
67987;BME280;54767;53.800;15.956;2023-04-25T06:49:47;99131.88;;;8.58;75.08
67987;BME280;54767;53.800;15.956;2023-04-25T06:52:14;99135.52;;;8.60;74.81
67987;BME280;54767;53.800;15.956;2023-04-25T06:54:41;99134.49;;;8.59;74.83
67987;BME280;54767;53.800;15.956;2023-04-25T06:57:08;99135.54;;;8.59;74.92
67987;BME280;54767;53.800;15.956;2023-04-25T06:59:34;99138.69;;;8.57;74.88
67987;BME280;54767;53.800;15.956;2023-04-25T07:02:01;99141.47;;;8.58;74.96
67987;BME280;54767;53.800;15.956;2023-04-25T07:04:28;99145.81;;;8.61;74.95
67987;BME280;54767;53.800;15.956;2023-04-25T07:06:55;99143.02;;;8.62;74.79
67987;BME280;54767;53.800;15.956;2023-04-25T07:09:23;99147.00;;;8.64;75.01
67987;BME280;54767;53.800;15.956;2023-04-25T07:11:49;99152.57;;;8.66;75.06
67987;BME280;54767;53.800;15.956;2023-04-25T07:14:16;99153.11;;;8.65;74.97
67987;BME280;54767;53.800;15.956;2023-04-25T07:16:43;99150.48;;;8.66;75.02
67987;BME280;54767;53.800;15.956;2023-04-25T07:19:10;99151.67;;;8.69;75.10
67987;BME280;54767;53.800;15.956;2023-04-25T07:21:37;99150.77;;;8.73;75.13
67987;BME280;54767;53.800;15.956;2023-04-25T07:24:04;99148.27;;;8.78;75.10
67987;BME280;54767;53.800;15.956;2023-04-25T07:26:31;99150.69;;;8.83;75.09
67987;BME280;54767;53.800;15.956;2023-04-25T07:28:58;99144.38;;;8.86;75.21
67987;BME280;54767;53.800;15.956;2023-04-25T07:31:24;99149.77;;;8.89;75.16
67987;BME280;54767;53.800;15.956;2023-04-25T07:33:52;99150.46;;;8.89;74.96
67987;BME280;54767;53.800;15.956;2023-04-25T07:36:19;99152.36;;;8.92;74.94
67987;BME280;54767;53.800;15.956;2023-04-25T07:38:47;99151.64;;;8.94;75.05
67987;BME280;54767;53.800;15.956;2023-04-25T07:41:14;99155.96;;;8.98;74.98
67987;BME280;54767;53.800;15.956;2023-04-25T07:43:41;99153.67;;;9.01;74.89
67987;BME280;54767;53.800;15.956;2023-04-25T07:46:08;99155.57;;;9.04;74.91
67987;BME280;54767;53.800;15.956;2023-04-25T07:48:35;99157.99;;;9.05;75.08
67987;BME280;54767;53.800;15.956;2023-04-25T07:51:02;99162.01;;;9.07;74.82
67987;BME280;54767;53.800;15.956;2023-04-25T07:53:33;99164.21;;;9.12;75.06
67987;BME280;54767;53.800;15.956;2023-04-25T07:56:01;99165.73;;;9.19;75.10
67987;BME280;54767;53.800;15.956;2023-04-25T07:58:28;99168.64;;;9.25;75.04
67987;BME280;54767;53.800;15.956;2023-04-25T08:00:54;99166.48;;;9.31;75.16
67987;BME280;54767;53.800;15.956;2023-04-25T08:03:21;99165.40;;;9.35;74.71
67987;BME280;54767;53.800;15.956;2023-04-25T08:05:48;99168.02;;;9.35;74.65
67987;BME280;54767;53.800;15.956;2023-04-25T08:08:15;99168.34;;;9.37;74.46
67987;BME280;54767;53.800;15.956;2023-04-25T08:10:42;99169.85;;;9.43;74.93
67987;BME280;54767;53.800;15.956;2023-04-25T08:13:09;99164.86;;;9.52;74.77
67987;BME280;54767;53.800;15.956;2023-04-25T08:15:36;99165.29;;;9.60;74.66
67987;BME280;54767;53.800;15.956;2023-04-25T08:18:03;99166.08;;;9.68;74.40
67987;BME280;54767;53.800;15.956;2023-04-25T08:20:30;99167.38;;;9.76;74.08
67987;BME280;54767;53.800;15.956;2023-04-25T08:22:57;99167.53;;;9.79;73.54
67987;BME280;54767;53.800;15.956;2023-04-25T08:25:23;99172.58;;;9.80;73.63
67987;BME280;54767;53.800;15.956;2023-04-25T08:27:50;99172.73;;;9.82;73.55
67987;BME280;54767;53.800;15.956;2023-04-25T08:30:17;99177.77;;;9.85;73.64
67987;BME280;54767;53.800;15.956;2023-04-25T08:32:44;99177.17;;;9.90;73.38
67987;BME280;54767;53.800;15.956;2023-04-25T08:35:10;99177.63;;;9.96;73.35
67987;BME280;54767;53.800;15.956;2023-04-25T08:37:37;99180.14;;;10.04;73.34
67987;BME280;54767;53.800;15.956;2023-04-25T08:40:05;99181.62;;;10.11;73.19
67987;BME280;54767;53.800;15.956;2023-04-25T08:42:33;99183.48;;;10.16;72.91
67987;BME280;54767;53.800;15.956;2023-04-25T08:45:03;99183.59;;;10.21;72.69
67987;BME280;54767;53.800;15.956;2023-04-25T08:47:33;99180.40;;;10.26;72.81
67987;BME280;54767;53.800;15.956;2023-04-25T08:50:03;99182.76;;;10.33;73.15
67987;BME280;54767;53.800;15.956;2023-04-25T08:52:36;99185.28;;;10.42;73.08
67987;BME280;54767;53.800;15.956;2023-04-25T08:55:06;99189.01;;;10.49;72.43
67987;BME280;54767;53.800;15.956;2023-04-25T08:57:35;99190.36;;;10.52;71.92
67987;BME280;54767;53.800;15.956;2023-04-25T09:00:04;99189.79;;;10.56;72.00
67987;BME280;54767;53.800;15.956;2023-04-25T09:02:32;99195.86;;;10.59;71.76
67987;BME280;54767;53.800;15.956;2023-04-25T09:04:59;99196.73;;;10.59;71.33
67987;BME280;54767;53.800;15.956;2023-04-25T09:07:26;99197.38;;;10.63;71.59
67987;BME280;54767;53.800;15.956;2023-04-25T09:09:53;99197.96;;;10.70;71.99
67987;BME280;54767;53.800;15.956;2023-04-25T09:12:21;99199.93;;;10.79;71.89
67987;BME280;54767;53.800;15.956;2023-04-25T09:15:03;99203.30;;;10.87;71.61
67987;BME280;54767;53.800;15.956;2023-04-25T09:17:30;99209.51;;;10.93;71.20
67987;BME280;54767;53.800;15.956;2023-04-25T09:20:12;99213.30;;;10.97;71.00
67987;BME280;54767;53.800;15.956;2023-04-25T09:22:39;99218.17;;;10.98;70.22
67987;BME280;54767;53.800;15.956;2023-04-25T09:25:11;99226.15;;;10.92;70.31
67987;BME280;54767;53.800;15.956;2023-04-25T09:27:52;99236.54;;;10.88;70.00
67987;BME280;54767;53.800;15.956;2023-04-25T09:30:29;99247.81;;;10.84;70.27
67987;BME280;54767;53.800;15.956;2023-04-25T09:33:04;99250.34;;;10.79;70.48
67987;BME280;54767;53.800;15.956;2023-04-25T09:35:39;99248.65;;;10.74;70.29
67987;BME280;54767;53.800;15.956;2023-04-25T09:38:14;99255.68;;;10.72;69.89
67987;BME280;54767;53.800;15.956;2023-04-25T09:40:43;99257.68;;;10.67;69.79
67987;BME280;54767;53.800;15.956;2023-04-25T09:45:45;99255.23;;;10.42;69.23
67987;BME280;54767;53.800;15.956;2023-04-25T09:48:20;99257.13;;;10.30;69.25
67987;BME280;54767;53.800;15.956;2023-04-25T09:53:38;99257.76;;;10.18;70.07
67987;BME280;54767;53.800;15.956;2023-04-25T09:56:08;99255.17;;;10.15;70.06
67987;BME280;54767;53.800;15.956;2023-04-25T09:58:37;99254.16;;;10.13;69.76
67987;BME280;54767;53.800;15.956;2023-04-25T10:01:06;99251.00;;;10.13;70.17
67987;BME280;54767;53.800;15.956;2023-04-25T10:03:38;99247.66;;;10.14;69.94
67987;BME280;54767;53.800;15.956;2023-04-25T10:06:12;99251.16;;;10.15;69.73
67987;BME280;54767;53.800;15.956;2023-04-25T10:08:41;99253.41;;;10.17;70.09
67987;BME280;54767;53.800;15.956;2023-04-25T10:11:08;99250.92;;;10.20;69.77
67987;BME280;54767;53.800;15.956;2023-04-25T10:13:35;99258.06;;;10.23;70.24
67987;BME280;54767;53.800;15.956;2023-04-25T10:16:04;99255.73;;;10.29;70.55
67987;BME280;54767;53.800;15.956;2023-04-25T10:18:32;99253.86;;;10.40;70.77
67987;BME280;54767;53.800;15.956;2023-04-25T10:21:01;99253.88;;;10.51;70.77
67987;BME280;54767;53.800;15.956;2023-04-25T10:23:30;99254.48;;;10.58;70.60
67987;BME280;54767;53.800;15.956;2023-04-25T10:25:58;99252.85;;;10.61;70.43
67987;BME280;54767;53.800;15.956;2023-04-25T10:28:25;99248.59;;;10.66;70.40
67987;BME280;54767;53.800;15.956;2023-04-25T10:31:03;99249.98;;;10.68;70.36
67987;BME280;54767;53.800;15.956;2023-04-25T10:33:36;99252.95;;;10.69;70.49
67987;BME280;54767;53.800;15.956;2023-04-25T10:36:33;99260.26;;;10.71;70.18
67987;BME280;54767;53.800;15.956;2023-04-25T10:39:04;99262.33;;;10.72;69.98
67987;BME280;54767;53.800;15.956;2023-04-25T10:41:55;99267.35;;;10.76;69.87
67987;BME280;54767;53.800;15.956;2023-04-25T10:44:23;99273.98;;;10.77;69.61
67987;BME280;54767;53.800;15.956;2023-04-25T10:46:55;99282.71;;;10.78;69.57
67987;BME280;54767;53.800;15.956;2023-04-25T10:49:41;99283.05;;;10.79;69.59
67987;BME280;54767;53.800;15.956;2023-04-25T10:54:47;99282.33;;;10.82;69.31
67987;BME280;54767;53.800;15.956;2023-04-25T10:57:31;99284.73;;;10.83;69.13
67987;BME280;54767;53.800;15.956;2023-04-25T11:00:08;99281.75;;;10.84;69.00
67987;BME280;54767;53.800;15.956;2023-04-25T11:02:41;99283.29;;;10.88;69.00
67987;BME280;54767;53.800;15.956;2023-04-25T11:05:14;99284.77;;;10.94;68.89
67987;BME280;54767;53.800;15.956;2023-04-25T11:07:51;99284.70;;;10.98;68.84
67987;BME280;54767;53.800;15.956;2023-04-25T11:10:33;99288.19;;;11.00;68.23
67987;BME280;54767;53.800;15.956;2023-04-25T11:13:02;99285.23;;;10.99;68.34
67987;BME280;54767;53.800;15.956;2023-04-25T11:15:29;99292.14;;;11.04;68.48
67987;BME280;54767;53.800;15.956;2023-04-25T11:17:56;99291.55;;;11.09;68.06
67987;BME280;54767;53.800;15.956;2023-04-25T11:20:25;99290.55;;;11.16;68.57
67987;BME280;54767;53.800;15.956;2023-04-25T11:22:52;99292.29;;;11.29;68.55
67987;BME280;54767;53.800;15.956;2023-04-25T11:25:19;99292.15;;;11.37;67.94
67987;BME280;54767;53.800;15.956;2023-04-25T11:27:53;99293.98;;;11.43;67.43
67987;BME280;54767;53.800;15.956;2023-04-25T11:30:23;99295.58;;;11.52;67.37
67987;BME280;54767;53.800;15.956;2023-04-25T11:32:50;99297.70;;;11.62;67.49
67987;BME280;54767;53.800;15.956;2023-04-25T11:35:19;99298.80;;;11.69;67.21
67987;BME280;54767;53.800;15.956;2023-04-25T11:37:47;99301.58;;;11.71;66.43
67987;BME280;54767;53.800;15.956;2023-04-25T11:40:14;99308.69;;;11.65;66.26
67987;BME280;54767;53.800;15.956;2023-04-25T11:42:46;99310.50;;;11.61;66.03
67987;BME280;54767;53.800;15.956;2023-04-25T11:45:14;99312.45;;;11.59;66.45
67987;BME280;54767;53.800;15.956;2023-04-25T11:47:41;99310.02;;;11.59;66.13
67987;BME280;54767;53.800;15.956;2023-04-25T11:50:08;99307.80;;;11.55;65.64
67987;BME280;54767;53.800;15.956;2023-04-25T11:52:39;99306.80;;;11.52;65.43
67987;BME280;54767;53.800;15.956;2023-04-25T11:55:14;99308.76;;;11.51;65.28
67987;BME280;54767;53.800;15.956;2023-04-25T11:57:42;99308.48;;;11.45;64.65
67987;BME280;54767;53.800;15.956;2023-04-25T12:00:12;99311.35;;;11.41;64.61
67987;BME280;54767;53.800;15.956;2023-04-25T12:02:45;99309.81;;;11.40;64.83
67987;BME280;54767;53.800;15.956;2023-04-25T12:05:14;99314.02;;;11.39;64.65
67987;BME280;54767;53.800;15.956;2023-04-25T12:08:09;99315.94;;;11.39;64.51
67987;BME280;54767;53.800;15.956;2023-04-25T12:10:38;99318.80;;;11.37;63.69
67987;BME280;54767;53.800;15.956;2023-04-25T12:15:48;99314.59;;;11.36;63.13
67987;BME280;54767;53.800;15.956;2023-04-25T12:18:19;99320.54;;;11.48;64.37
67987;BME280;54767;53.800;15.956;2023-04-25T12:20:47;99320.05;;;11.66;63.89
67987;BME280;54767;53.800;15.956;2023-04-25T12:23:13;99322.06;;;11.83;64.47
67987;BME280;54767;53.800;15.956;2023-04-25T12:25:42;99332.23;;;12.02;64.02
67987;BME280;54767;53.800;15.956;2023-04-25T12:28:19;99337.10;;;12.14;62.83
67987;BME280;54767;53.800;15.956;2023-04-25T12:31:00;99338.84;;;12.16;61.76
67987;BME280;54767;53.800;15.956;2023-04-25T12:33:30;99344.70;;;12.12;61.38
67987;BME280;54767;53.800;15.956;2023-04-25T12:35:59;99347.39;;;12.08;60.74
67987;BME280;54767;53.800;15.956;2023-04-25T12:38:47;99348.36;;;12.03;60.50
67987;BME280;54767;53.800;15.956;2023-04-25T12:41:14;99350.55;;;11.98;60.25
67987;BME280;54767;53.800;15.956;2023-04-25T12:43:41;99352.77;;;11.92;60.12
67987;BME280;54767;53.800;15.956;2023-04-25T12:46:08;99359.14;;;11.88;60.39
67987;BME280;54767;53.800;15.956;2023-04-25T12:48:36;99358.66;;;11.86;60.43
67987;BME280;54767;53.800;15.956;2023-04-25T12:51:04;99364.63;;;11.85;60.42
67987;BME280;54767;53.800;15.956;2023-04-25T12:53:31;99362.61;;;11.80;59.92
67987;BME280;54767;53.800;15.956;2023-04-25T12:56:01;99367.76;;;11.75;59.78
67987;BME280;54767;53.800;15.956;2023-04-25T12:58:28;99370.83;;;11.70;59.74
67987;BME280;54767;53.800;15.956;2023-04-25T13:00:55;99371.39;;;11.67;59.81
67987;BME280;54767;53.800;15.956;2023-04-25T13:03:22;99374.77;;;11.64;59.33
67987;BME280;54767;53.800;15.956;2023-04-25T13:05:49;99375.86;;;11.61;59.39
67987;BME280;54767;53.800;15.956;2023-04-25T13:08:16;99376.29;;;11.57;58.87
67987;BME280;54767;53.800;15.956;2023-04-25T13:10:43;99378.67;;;11.49;58.73
67987;BME280;54767;53.800;15.956;2023-04-25T13:13:10;99380.65;;;11.47;58.97
67987;BME280;54767;53.800;15.956;2023-04-25T13:15:37;99383.36;;;11.41;58.32